sensor_id;sensor_type;location;lat;lon;timestamp;P1;durP1;ratioP1;P2;durP2;ratioP2
8260;SDS011;64115;50.170;8.242;2023-04-24T00:01:51;2.87;;;2.67;;
8260;SDS011;64115;50.170;8.242;2023-04-24T00:04:20;2.87;;;2.67;;
8260;SDS011;64115;50.170;8.242;2023-04-24T00:06:50;2.90;;;2.80;;
8260;SDS011;64115;50.170;8.242;2023-04-24T00:09:19;4.23;;;2.90;;
8260;SDS011;64115;50.170;8.242;2023-04-24T00:11:46;3.10;;;2.90;;
8260;SDS011;64115;50.170;8.242;2023-04-24T00:14:13;4.40;;;3.10;;
8260;SDS011;64115;50.170;8.242;2023-04-24T00:16:40;3.23;;;3.00;;
8260;SDS011;64115;50.170;8.242;2023-04-24T00:19:08;3.73;;;3.50;;
8260;SDS011;64115;50.170;8.242;2023-04-24T00:21:39;3.67;;;3.47;;
8260;SDS011;64115;50.170;8.242;2023-04-24T00:24:06;3.50;;;3.30;;
8260;SDS011;64115;50.170;8.242;2023-04-24T00:26:34;5.90;;;3.70;;
8260;SDS011;64115;50.170;8.242;2023-04-24T00:29:02;3.67;;;3.47;;
8260;SDS011;64115;50.170;8.242;2023-04-24T00:31:29;3.93;;;3.53;;
8260;SDS011;64115;50.170;8.242;2023-04-24T00:33:56;3.97;;;3.77;;
8260;SDS011;64115;50.170;8.242;2023-04-24T00:36:24;5.10;;;3.47;;
8260;SDS011;64115;50.170;8.242;2023-04-24T00:38:53;3.47;;;3.27;;
8260;SDS011;64115;50.170;8.242;2023-04-24T00:41:21;4.00;;;3.60;;
8260;SDS011;64115;50.170;8.242;2023-04-24T00:43:48;3.93;;;3.07;;
8260;SDS011;64115;50.170;8.242;2023-04-24T00:46:15;3.53;;;3.20;;
8260;SDS011;64115;50.170;8.242;2023-04-24T00:48:43;3.70;;;3.40;;
8260;SDS011;64115;50.170;8.242;2023-04-24T00:51:10;3.20;;;3.00;;
8260;SDS011;64115;50.170;8.242;2023-04-24T00:53:38;3.40;;;3.10;;
8260;SDS011;64115;50.170;8.242;2023-04-24T00:56:06;3.20;;;2.90;;
8260;SDS011;64115;50.170;8.242;2023-04-24T00:58:34;3.10;;;2.60;;
8260;SDS011;64115;50.170;8.242;2023-04-24T01:01:01;2.63;;;2.40;;
8260;SDS011;64115;50.170;8.242;2023-04-24T01:03:32;2.60;;;2.40;;
8260;SDS011;64115;50.170;8.242;2023-04-24T01:06:02;2.60;;;2.40;;
8260;SDS011;64115;50.170;8.242;2023-04-24T01:08:30;2.37;;;2.17;;
8260;SDS011;64115;50.170;8.242;2023-04-24T01:10:57;2.47;;;2.27;;
8260;SDS011;64115;50.170;8.242;2023-04-24T01:13:26;2.20;;;2.10;;
8260;SDS011;64115;50.170;8.242;2023-04-24T01:15:54;2.60;;;2.23;;
8260;SDS011;64115;50.170;8.242;2023-04-24T01:18:21;2.83;;;2.20;;
8260;SDS011;64115;50.170;8.242;2023-04-24T01:20:48;2.40;;;2.30;;
8260;SDS011;64115;50.170;8.242;2023-04-24T01:23:21;3.23;;;1.93;;
8260;SDS011;64115;50.170;8.242;2023-04-24T01:25:48;2.37;;;2.17;;
8260;SDS011;64115;50.170;8.242;2023-04-24T01:28:16;2.20;;;2.10;;
8260;SDS011;64115;50.170;8.242;2023-04-24T01:30:44;2.30;;;2.10;;
8260;SDS011;64115;50.170;8.242;2023-04-24T01:33:11;2.03;;;1.93;;
8260;SDS011;64115;50.170;8.242;2023-04-24T01:35:39;3.23;;;2.13;;
8260;SDS011;64115;50.170;8.242;2023-04-24T01:38:06;2.50;;;2.27;;
8260;SDS011;64115;50.170;8.242;2023-04-24T01:40:35;3.53;;;2.07;;
8260;SDS011;64115;50.170;8.242;2023-04-24T01:43:02;3.43;;;1.80;;
8260;SDS011;64115;50.170;8.242;2023-04-24T01:45:29;3.17;;;1.90;;
8260;SDS011;64115;50.170;8.242;2023-04-24T01:47:56;1.80;;;1.70;;
8260;SDS011;64115;50.170;8.242;2023-04-24T01:50:23;1.60;;;1.50;;
8260;SDS011;64115;50.170;8.242;2023-04-24T01:52:50;2.27;;;1.70;;
8260;SDS011;64115;50.170;8.242;2023-04-24T01:55:17;2.80;;;1.40;;
8260;SDS011;64115;50.170;8.242;2023-04-24T01:57:46;1.60;;;1.50;;
8260;SDS011;64115;50.170;8.242;2023-04-24T02:00:14;3.17;;;1.50;;
8260;SDS011;64115;50.170;8.242;2023-04-24T02:02:41;1.20;;;1.20;;
8260;SDS011;64115;50.170;8.242;2023-04-24T02:05:08;2.30;;;1.33;;
8260;SDS011;64115;50.170;8.242;2023-04-24T02:07:36;1.50;;;1.40;;
8260;SDS011;64115;50.170;8.242;2023-04-24T02:10:03;1.40;;;1.30;;
8260;SDS011;64115;50.170;8.242;2023-04-24T02:12:31;1.33;;;1.30;;
8260;SDS011;64115;50.170;8.242;2023-04-24T02:14:59;1.40;;;1.30;;
8260;SDS011;64115;50.170;8.242;2023-04-24T02:17:28;2.20;;;1.37;;
8260;SDS011;64115;50.170;8.242;2023-04-24T02:19:55;2.70;;;1.27;;
8260;SDS011;64115;50.170;8.242;2023-04-24T02:22:23;1.30;;;1.20;;
8260;SDS011;64115;50.170;8.242;2023-04-24T02:24:50;1.57;;;1.20;;
8260;SDS011;64115;50.170;8.242;2023-04-24T02:27:17;1.90;;;1.27;;
8260;SDS011;64115;50.170;8.242;2023-04-24T02:29:44;1.50;;;1.40;;
8260;SDS011;64115;50.170;8.242;2023-04-24T02:32:13;1.33;;;1.30;;
8260;SDS011;64115;50.170;8.242;2023-04-24T02:34:40;1.70;;;1.60;;
8260;SDS011;64115;50.170;8.242;2023-04-24T02:37:07;1.50;;;1.40;;
8260;SDS011;64115;50.170;8.242;2023-04-24T02:39:34;1.97;;;1.57;;
8260;SDS011;64115;50.170;8.242;2023-04-24T02:42:01;1.50;;;1.40;;
8260;SDS011;64115;50.170;8.242;2023-04-24T02:44:28;1.57;;;1.47;;
8260;SDS011;64115;50.170;8.242;2023-04-24T02:46:55;1.60;;;1.50;;
8260;SDS011;64115;50.170;8.242;2023-04-24T02:49:24;1.80;;;1.70;;
8260;SDS011;64115;50.170;8.242;2023-04-24T02:51:52;2.10;;;1.37;;
8260;SDS011;64115;50.170;8.242;2023-04-24T02:54:19;1.67;;;1.57;;
8260;SDS011;64115;50.170;8.242;2023-04-24T02:56:46;1.70;;;1.60;;
8260;SDS011;64115;50.170;8.242;2023-04-24T02:59:13;1.47;;;1.43;;
8260;SDS011;64115;50.170;8.242;2023-04-24T03:01:40;2.60;;;1.70;;
8260;SDS011;64115;50.170;8.242;2023-04-24T03:04:07;1.60;;;1.60;;
8260;SDS011;64115;50.170;8.242;2023-04-24T03:06:36;1.80;;;1.70;;
8260;SDS011;64115;50.170;8.242;2023-04-24T03:09:04;1.63;;;1.53;;
8260;SDS011;64115;50.170;8.242;2023-04-24T03:11:31;1.50;;;1.50;;
8260;SDS011;64115;50.170;8.242;2023-04-24T03:13:58;1.90;;;1.80;;
8260;SDS011;64115;50.170;8.242;2023-04-24T03:16:25;2.07;;;1.60;;
8260;SDS011;64115;50.170;8.242;2023-04-24T03:18:52;1.73;;;1.47;;
8260;SDS011;64115;50.170;8.242;2023-04-24T03:21:19;1.70;;;1.60;;
8260;SDS011;64115;50.170;8.242;2023-04-24T03:23:48;2.53;;;1.70;;
8260;SDS011;64115;50.170;8.242;2023-04-24T03:26:15;1.67;;;1.60;;
8260;SDS011;64115;50.170;8.242;2023-04-24T03:28:42;1.80;;;1.70;;
8260;SDS011;64115;50.170;8.242;2023-04-24T03:31:09;1.70;;;1.60;;
8260;SDS011;64115;50.170;8.242;2023-04-24T03:33:36;4.13;;;1.60;;
8260;SDS011;64115;50.170;8.242;2023-04-24T03:36:03;1.90;;;1.80;;
8260;SDS011;64115;50.170;8.242;2023-04-24T03:38:31;1.87;;;1.77;;
8260;SDS011;64115;50.170;8.242;2023-04-24T03:40:59;1.70;;;1.60;;
8260;SDS011;64115;50.170;8.242;2023-04-24T03:43:27;1.90;;;1.80;;
8260;SDS011;64115;50.170;8.242;2023-04-24T03:45:53;2.13;;;1.90;;
8260;SDS011;64115;50.170;8.242;2023-04-24T03:48:21;2.03;;;1.90;;
8260;SDS011;64115;50.170;8.242;2023-04-24T03:50:48;2.00;;;1.90;;
8260;SDS011;64115;50.170;8.242;2023-04-24T03:53:15;2.10;;;1.90;;
8260;SDS011;64115;50.170;8.242;2023-04-24T03:55:42;2.00;;;1.90;;
8260;SDS011;64115;50.170;8.242;2023-04-24T03:58:10;2.07;;;1.90;;
8260;SDS011;64115;50.170;8.242;2023-04-24T04:00:38;2.00;;;1.90;;
8260;SDS011;64115;50.170;8.242;2023-04-24T04:03:06;2.30;;;2.20;;
8260;SDS011;64115;50.170;8.242;2023-04-24T04:05:33;3.50;;;2.00;;
8260;SDS011;64115;50.170;8.242;2023-04-24T04:08:00;1.90;;;1.80;;
8260;SDS011;64115;50.170;8.242;2023-04-24T04:10:27;2.00;;;1.90;;
8260;SDS011;64115;50.170;8.242;2023-04-24T04:12:54;2.50;;;2.10;;
8260;SDS011;64115;50.170;8.242;2023-04-24T04:15:23;2.20;;;2.03;;
8260;SDS011;64115;50.170;8.242;2023-04-24T04:17:50;4.30;;;2.00;;
8260;SDS011;64115;50.170;8.242;2023-04-24T04:20:17;2.07;;;1.87;;
8260;SDS011;64115;50.170;8.242;2023-04-24T04:22:44;2.13;;;2.03;;
8260;SDS011;64115;50.170;8.242;2023-04-24T04:25:11;2.00;;;1.90;;
8260;SDS011;64115;50.170;8.242;2023-04-24T04:27:39;1.90;;;1.80;;
8260;SDS011;64115;50.170;8.242;2023-04-24T04:30:07;2.27;;;2.10;;
8260;SDS011;64115;50.170;8.242;2023-04-24T04:32:36;3.07;;;2.10;;
8260;SDS011;64115;50.170;8.242;2023-04-24T04:35:03;3.47;;;2.00;;
8260;SDS011;64115;50.170;8.242;2023-04-24T04:37:31;3.73;;;2.10;;
8260;SDS011;64115;50.170;8.242;2023-04-24T04:39:59;1.90;;;1.73;;
8260;SDS011;64115;50.170;8.242;2023-04-24T04:42:31;1.73;;;1.63;;
8260;SDS011;64115;50.170;8.242;2023-04-24T04:44:59;2.17;;;2.07;;
8260;SDS011;64115;50.170;8.242;2023-04-24T04:47:27;2.33;;;2.07;;
8260;SDS011;64115;50.170;8.242;2023-04-24T04:49:58;2.70;;;2.10;;
8260;SDS011;64115;50.170;8.242;2023-04-24T04:52:25;2.23;;;2.00;;
8260;SDS011;64115;50.170;8.242;2023-04-24T04:54:52;2.17;;;1.97;;
8260;SDS011;64115;50.170;8.242;2023-04-24T04:57:19;2.90;;;1.90;;
8260;SDS011;64115;50.170;8.242;2023-04-24T04:59:47;2.00;;;1.90;;
8260;SDS011;64115;50.170;8.242;2023-04-24T05:02:14;2.07;;;1.97;;
8260;SDS011;64115;50.170;8.242;2023-04-24T05:04:41;2.00;;;1.90;;
8260;SDS011;64115;50.170;8.242;2023-04-24T05:07:10;2.10;;;1.80;;
8260;SDS011;64115;50.170;8.242;2023-04-24T05:09:37;2.23;;;2.13;;
8260;SDS011;64115;50.170;8.242;2023-04-24T05:12:04;2.30;;;2.10;;
8260;SDS011;64115;50.170;8.242;2023-04-24T05:14:32;2.40;;;2.20;;
8260;SDS011;64115;50.170;8.242;2023-04-24T05:16:59;2.03;;;1.93;;
8260;SDS011;64115;50.170;8.242;2023-04-24T05:19:26;2.53;;;2.33;;
8260;SDS011;64115;50.170;8.242;2023-04-24T05:21:53;2.60;;;2.10;;
8260;SDS011;64115;50.170;8.242;2023-04-24T05:24:22;3.07;;;2.30;;
8260;SDS011;64115;50.170;8.242;2023-04-24T05:26:49;2.50;;;2.27;;
8260;SDS011;64115;50.170;8.242;2023-04-24T05:29:17;2.27;;;2.17;;
8260;SDS011;64115;50.170;8.242;2023-04-24T05:31:44;2.17;;;2.07;;
8260;SDS011;64115;50.170;8.242;2023-04-24T05:34:11;3.37;;;2.30;;
8260;SDS011;64115;50.170;8.242;2023-04-24T05:36:39;3.27;;;2.50;;
8260;SDS011;64115;50.170;8.242;2023-04-24T05:39:06;3.00;;;2.80;;
8260;SDS011;64115;50.170;8.242;2023-04-24T05:41:34;2.47;;;2.37;;
8260;SDS011;64115;50.170;8.242;2023-04-24T05:44:01;3.10;;;2.80;;
8260;SDS011;64115;50.170;8.242;2023-04-24T05:46:28;3.27;;;3.07;;
8260;SDS011;64115;50.170;8.242;2023-04-24T05:48:55;3.97;;;3.60;;
8260;SDS011;64115;50.170;8.242;2023-04-24T05:51:22;3.70;;;3.47;;
8260;SDS011;64115;50.170;8.242;2023-04-24T05:53:50;3.80;;;3.50;;
8260;SDS011;64115;50.170;8.242;2023-04-24T05:56:18;3.70;;;3.40;;
8260;SDS011;64115;50.170;8.242;2023-04-24T05:58:46;3.77;;;3.50;;
8260;SDS011;64115;50.170;8.242;2023-04-24T06:01:14;4.33;;;4.03;;
8260;SDS011;64115;50.170;8.242;2023-04-24T06:03:41;4.43;;;3.90;;
8260;SDS011;64115;50.170;8.242;2023-04-24T06:06:10;4.73;;;4.43;;
8260;SDS011;64115;50.170;8.242;2023-04-24T06:08:37;4.10;;;3.80;;
8260;SDS011;64115;50.170;8.242;2023-04-24T06:11:04;3.90;;;3.60;;
8260;SDS011;64115;50.170;8.242;2023-04-24T06:13:31;5.60;;;4.00;;
8260;SDS011;64115;50.170;8.242;2023-04-24T06:15:59;4.07;;;3.77;;
8260;SDS011;64115;50.170;8.242;2023-04-24T06:18:27;4.30;;;3.80;;
8260;SDS011;64115;50.170;8.242;2023-04-24T06:20:54;4.03;;;3.67;;
8260;SDS011;64115;50.170;8.242;2023-04-24T06:23:21;4.03;;;3.70;;
8260;SDS011;64115;50.170;8.242;2023-04-24T06:25:48;3.77;;;3.53;;
8260;SDS011;64115;50.170;8.242;2023-04-24T06:28:16;4.10;;;3.90;;
8260;SDS011;64115;50.170;8.242;2023-04-24T06:30:43;4.20;;;3.90;;
8260;SDS011;64115;50.170;8.242;2023-04-24T06:33:11;4.30;;;4.00;;
8260;SDS011;64115;50.170;8.242;2023-04-24T06:35:38;3.90;;;3.60;;
8260;SDS011;64115;50.170;8.242;2023-04-24T06:38:05;3.73;;;3.53;;
8260;SDS011;64115;50.170;8.242;2023-04-24T06:40:33;3.40;;;3.10;;
8260;SDS011;64115;50.170;8.242;2023-04-24T06:43:00;4.33;;;3.93;;
8260;SDS011;64115;50.170;8.242;2023-04-24T06:45:27;3.13;;;2.93;;
8260;SDS011;64115;50.170;8.242;2023-04-24T06:47:54;3.07;;;2.87;;
8260;SDS011;64115;50.170;8.242;2023-04-24T06:50:23;3.20;;;3.00;;
8260;SDS011;64115;50.170;8.242;2023-04-24T06:52:50;2.90;;;2.70;;
8260;SDS011;64115;50.170;8.242;2023-04-24T06:55:18;3.20;;;2.83;;
8260;SDS011;64115;50.170;8.242;2023-04-24T06:57:45;3.13;;;2.93;;
8260;SDS011;64115;50.170;8.242;2023-04-24T07:00:12;2.83;;;2.60;;
8260;SDS011;64115;50.170;8.242;2023-04-24T07:02:40;2.73;;;2.33;;
8260;SDS011;64115;50.170;8.242;2023-04-24T07:05:07;2.63;;;2.43;;
8260;SDS011;64115;50.170;8.242;2023-04-24T07:12:46;2.47;;;2.20;;
8260;SDS011;64115;50.170;8.242;2023-04-24T07:15:13;2.40;;;2.20;;
8260;SDS011;64115;50.170;8.242;2023-04-24T07:17:41;2.70;;;2.50;;
8260;SDS011;64115;50.170;8.242;2023-04-24T07:20:10;2.50;;;2.30;;
8260;SDS011;64115;50.170;8.242;2023-04-24T07:22:39;3.03;;;2.40;;
8260;SDS011;64115;50.170;8.242;2023-04-24T07:25:07;2.60;;;2.40;;
8260;SDS011;64115;50.170;8.242;2023-04-24T07:27:34;2.20;;;2.10;;
8260;SDS011;64115;50.170;8.242;2023-04-24T07:30:05;2.70;;;2.20;;
8260;SDS011;64115;50.170;8.242;2023-04-24T07:32:33;2.17;;;2.07;;
8260;SDS011;64115;50.170;8.242;2023-04-24T07:35:03;2.10;;;2.00;;
8260;SDS011;64115;50.170;8.242;2023-04-24T07:37:30;2.00;;;1.90;;
8260;SDS011;64115;50.170;8.242;2023-04-24T07:39:58;2.50;;;2.40;;
8260;SDS011;64115;50.170;8.242;2023-04-24T07:42:25;2.53;;;2.37;;
8260;SDS011;64115;50.170;8.242;2023-04-24T07:44:52;2.33;;;2.23;;
8260;SDS011;64115;50.170;8.242;2023-04-24T07:47:20;2.70;;;2.50;;
8260;SDS011;64115;50.170;8.242;2023-04-24T07:49:48;2.33;;;2.23;;
8260;SDS011;64115;50.170;8.242;2023-04-24T07:52:15;2.17;;;2.07;;
8260;SDS011;64115;50.170;8.242;2023-04-24T07:54:42;2.20;;;2.10;;
8260;SDS011;64115;50.170;8.242;2023-04-24T07:57:09;2.67;;;2.47;;
8260;SDS011;64115;50.170;8.242;2023-04-24T07:59:36;2.80;;;2.60;;
8260;SDS011;64115;50.170;8.242;2023-04-24T08:02:03;3.50;;;2.20;;
8260;SDS011;64115;50.170;8.242;2023-04-24T08:07:01;2.40;;;2.30;;
8260;SDS011;64115;50.170;8.242;2023-04-24T08:09:27;2.57;;;2.37;;
8260;SDS011;64115;50.170;8.242;2023-04-24T08:11:54;2.50;;;2.30;;
8260;SDS011;64115;50.170;8.242;2023-04-24T08:14:21;2.83;;;2.40;;
8260;SDS011;64115;50.170;8.242;2023-04-24T08:16:48;2.27;;;2.07;;
8260;SDS011;64115;50.170;8.242;2023-04-24T08:19:15;2.13;;;2.00;;
8260;SDS011;64115;50.170;8.242;2023-04-24T08:21:44;2.30;;;2.10;;
8260;SDS011;64115;50.170;8.242;2023-04-24T08:24:11;2.30;;;2.10;;
8260;SDS011;64115;50.170;8.242;2023-04-24T08:26:38;2.10;;;2.00;;
8260;SDS011;64115;50.170;8.242;2023-04-24T08:29:06;2.27;;;2.07;;
8260;SDS011;64115;50.170;8.242;2023-04-24T08:31:33;2.60;;;2.40;;
8260;SDS011;64115;50.170;8.242;2023-04-24T08:34:00;2.97;;;2.67;;
8260;SDS011;64115;50.170;8.242;2023-04-24T08:36:27;2.33;;;2.10;;
8260;SDS011;64115;50.170;8.242;2023-04-24T08:38:57;2.30;;;2.10;;
8260;SDS011;64115;50.170;8.242;2023-04-24T08:41:24;2.20;;;2.10;;
8260;SDS011;64115;50.170;8.242;2023-04-24T08:43:51;2.00;;;1.90;;
8260;SDS011;64115;50.170;8.242;2023-04-24T08:46:20;2.03;;;1.90;;
8260;SDS011;64115;50.170;8.242;2023-04-24T08:48:47;2.13;;;1.90;;
8260;SDS011;64115;50.170;8.242;2023-04-24T08:51:15;1.80;;;1.70;;
8260;SDS011;64115;50.170;8.242;2023-04-24T08:53:44;1.53;;;1.50;;
8260;SDS011;64115;50.170;8.242;2023-04-24T08:56:14;2.00;;;1.80;;
8260;SDS011;64115;50.170;8.242;2023-04-24T08:58:41;1.77;;;1.67;;
8260;SDS011;64115;50.170;8.242;2023-04-24T09:01:09;1.97;;;1.87;;
8260;SDS011;64115;50.170;8.242;2023-04-24T09:03:37;1.97;;;1.50;;
8260;SDS011;64115;50.170;8.242;2023-04-24T09:06:06;2.10;;;1.73;;
8260;SDS011;64115;50.170;8.242;2023-04-24T09:08:35;1.70;;;1.60;;
8260;SDS011;64115;50.170;8.242;2023-04-24T09:11:03;1.73;;;1.63;;
8260;SDS011;64115;50.170;8.242;2023-04-24T09:13:31;1.63;;;1.53;;
8260;SDS011;64115;50.170;8.242;2023-04-24T09:15:59;1.60;;;1.50;;
8260;SDS011;64115;50.170;8.242;2023-04-24T09:18:26;1.70;;;1.53;;
8260;SDS011;64115;50.170;8.242;2023-04-24T09:20:57;1.77;;;1.67;;
8260;SDS011;64115;50.170;8.242;2023-04-24T09:23:25;1.70;;;1.60;;
8260;SDS011;64115;50.170;8.242;2023-04-24T09:25:54;1.80;;;1.70;;
8260;SDS011;64115;50.170;8.242;2023-04-24T09:28:24;1.60;;;1.50;;
8260;SDS011;64115;50.170;8.242;2023-04-24T09:31:03;1.40;;;1.40;;
8260;SDS011;64115;50.170;8.242;2023-04-24T09:33:31;1.40;;;1.30;;
8260;SDS011;64115;50.170;8.242;2023-04-24T09:35:59;1.87;;;1.20;;
8260;SDS011;64115;50.170;8.242;2023-04-24T09:38:32;1.70;;;1.40;;
8260;SDS011;64115;50.170;8.242;2023-04-24T09:41:01;1.30;;;1.30;;
8260;SDS011;64115;50.170;8.242;2023-04-24T09:43:31;1.50;;;1.47;;
8260;SDS011;64115;50.170;8.242;2023-04-24T09:45:59;2.00;;;1.80;;
8260;SDS011;64115;50.170;8.242;2023-04-24T09:48:32;1.47;;;1.40;;
8260;SDS011;64115;50.170;8.242;2023-04-24T09:51:00;1.70;;;1.60;;
8260;SDS011;64115;50.170;8.242;2023-04-24T09:53:28;1.87;;;1.67;;
8260;SDS011;64115;50.170;8.242;2023-04-24T09:55:56;1.50;;;1.40;;
8260;SDS011;64115;50.170;8.242;2023-04-24T09:58:28;1.60;;;1.50;;
8260;SDS011;64115;50.170;8.242;2023-04-24T10:00:56;1.53;;;1.43;;
8260;SDS011;64115;50.170;8.242;2023-04-24T10:03:23;1.23;;;1.23;;
8260;SDS011;64115;50.170;8.242;2023-04-24T10:05:53;1.73;;;1.63;;
8260;SDS011;64115;50.170;8.242;2023-04-24T10:08:24;1.73;;;1.63;;
8260;SDS011;64115;50.170;8.242;2023-04-24T10:10:51;1.40;;;1.30;;
8260;SDS011;64115;50.170;8.242;2023-04-24T10:13:18;1.40;;;1.30;;
8260;SDS011;64115;50.170;8.242;2023-04-24T10:15:46;1.50;;;1.40;;
8260;SDS011;64115;50.170;8.242;2023-04-24T10:18:16;1.50;;;1.40;;
8260;SDS011;64115;50.170;8.242;2023-04-24T10:20:44;1.47;;;1.47;;
8260;SDS011;64115;50.170;8.242;2023-04-24T10:23:13;1.40;;;1.40;;
8260;SDS011;64115;50.170;8.242;2023-04-24T10:25:41;1.87;;;1.77;;
8260;SDS011;64115;50.170;8.242;2023-04-24T10:28:10;1.47;;;1.40;;
8260;SDS011;64115;50.170;8.242;2023-04-24T10:30:38;1.70;;;1.60;;
8260;SDS011;64115;50.170;8.242;2023-04-24T10:33:08;1.30;;;1.30;;
8260;SDS011;64115;50.170;8.242;2023-04-24T10:35:37;1.53;;;1.40;;
8260;SDS011;64115;50.170;8.242;2023-04-24T10:38:08;1.20;;;1.20;;
8260;SDS011;64115;50.170;8.242;2023-04-24T10:40:39;1.60;;;1.50;;
8260;SDS011;64115;50.170;8.242;2023-04-24T10:43:06;1.60;;;1.50;;
8260;SDS011;64115;50.170;8.242;2023-04-24T10:45:36;2.07;;;1.60;;
8260;SDS011;64115;50.170;8.242;2023-04-24T10:48:04;1.47;;;1.37;;
8260;SDS011;64115;50.170;8.242;2023-04-24T10:50:42;1.43;;;1.43;;
8260;SDS011;64115;50.170;8.242;2023-04-24T10:53:15;1.53;;;1.43;;
8260;SDS011;64115;50.170;8.242;2023-04-24T10:55:46;1.60;;;1.50;;
8260;SDS011;64115;50.170;8.242;2023-04-24T10:58:14;1.73;;;1.63;;
8260;SDS011;64115;50.170;8.242;2023-04-24T11:00:42;2.03;;;1.93;;
8260;SDS011;64115;50.170;8.242;2023-04-24T11:03:24;1.70;;;1.60;;
8260;SDS011;64115;50.170;8.242;2023-04-24T11:05:53;1.40;;;1.40;;
8260;SDS011;64115;50.170;8.242;2023-04-24T11:08:23;1.73;;;1.63;;
8260;SDS011;64115;50.170;8.242;2023-04-24T11:10:57;1.97;;;1.87;;
8260;SDS011;64115;50.170;8.242;2023-04-24T11:16:30;1.83;;;1.60;;
8260;SDS011;64115;50.170;8.242;2023-04-24T11:19:03;3.87;;;2.10;;
8260;SDS011;64115;50.170;8.242;2023-04-24T11:21:31;2.00;;;1.90;;
8260;SDS011;64115;50.170;8.242;2023-04-24T11:27:07;2.00;;;1.90;;
8260;SDS011;64115;50.170;8.242;2023-04-24T11:29:40;2.40;;;2.30;;
8260;SDS011;64115;50.170;8.242;2023-04-24T11:32:18;2.60;;;2.40;;
8260;SDS011;64115;50.170;8.242;2023-04-24T11:34:50;2.17;;;2.07;;
8260;SDS011;64115;50.170;8.242;2023-04-24T11:37:18;2.20;;;2.00;;
8260;SDS011;64115;50.170;8.242;2023-04-24T11:39:45;2.33;;;2.23;;
8260;SDS011;64115;50.170;8.242;2023-04-24T11:42:15;3.03;;;2.23;;
8260;SDS011;64115;50.170;8.242;2023-04-24T11:44:42;2.40;;;2.20;;
8260;SDS011;64115;50.170;8.242;2023-04-24T11:47:09;2.53;;;2.10;;
8260;SDS011;64115;50.170;8.242;2023-04-24T11:49:36;2.37;;;2.27;;
8260;SDS011;64115;50.170;8.242;2023-04-24T11:52:04;2.50;;;2.40;;
8260;SDS011;64115;50.170;8.242;2023-04-24T11:54:31;2.47;;;2.37;;
8260;SDS011;64115;50.170;8.242;2023-04-24T11:56:58;2.70;;;2.50;;
8260;SDS011;64115;50.170;8.242;2023-04-24T11:59:27;2.47;;;2.33;;
8260;SDS011;64115;50.170;8.242;2023-04-24T12:01:54;3.73;;;2.77;;
8260;SDS011;64115;50.170;8.242;2023-04-24T12:04:21;2.47;;;2.37;;
8260;SDS011;64115;50.170;8.242;2023-04-24T12:07:00;3.80;;;2.80;;
8260;SDS011;64115;50.170;8.242;2023-04-24T12:09:28;2.70;;;2.50;;
8260;SDS011;64115;50.170;8.242;2023-04-24T12:12:06;2.70;;;2.50;;
8260;SDS011;64115;50.170;8.242;2023-04-24T12:14:34;3.00;;;2.80;;
8260;SDS011;64115;50.170;8.242;2023-04-24T12:17:09;3.37;;;3.07;;
8260;SDS011;64115;50.170;8.242;2023-04-24T12:19:36;2.97;;;2.70;;
8260;SDS011;64115;50.170;8.242;2023-04-24T12:22:04;3.50;;;3.20;;
8260;SDS011;64115;50.170;8.242;2023-04-24T12:24:32;4.77;;;3.53;;
8260;SDS011;64115;50.170;8.242;2023-04-24T12:26:59;3.47;;;3.20;;
8260;SDS011;64115;50.170;8.242;2023-04-24T12:29:27;3.60;;;3.30;;
8260;SDS011;64115;50.170;8.242;2023-04-24T12:31:56;3.60;;;3.30;;
8260;SDS011;64115;50.170;8.242;2023-04-24T12:34:23;3.80;;;3.00;;
8260;SDS011;64115;50.170;8.242;2023-04-24T12:36:51;3.67;;;3.23;;
8260;SDS011;64115;50.170;8.242;2023-04-24T12:39:18;5.67;;;3.20;;
8260;SDS011;64115;50.170;8.242;2023-04-24T12:41:54;2.90;;;2.70;;
8260;SDS011;64115;50.170;8.242;2023-04-24T12:44:29;4.43;;;3.30;;
8260;SDS011;64115;50.170;8.242;2023-04-24T12:47:00;6.13;;;3.20;;
8260;SDS011;64115;50.170;8.242;2023-04-24T12:49:29;3.00;;;2.80;;
8260;SDS011;64115;50.170;8.242;2023-04-24T12:51:56;3.20;;;2.90;;
8260;SDS011;64115;50.170;8.242;2023-04-24T12:54:24;3.40;;;2.80;;
8260;SDS011;64115;50.170;8.242;2023-04-24T12:56:51;4.43;;;3.20;;
8260;SDS011;64115;50.170;8.242;2023-04-24T12:59:18;3.17;;;2.90;;
8260;SDS011;64115;50.170;8.242;2023-04-24T13:01:45;3.00;;;2.80;;
8260;SDS011;64115;50.170;8.242;2023-04-24T13:04:13;3.20;;;2.97;;
8260;SDS011;64115;50.170;8.242;2023-04-24T13:06:42;3.33;;;3.00;;
8260;SDS011;64115;50.170;8.242;2023-04-24T13:09:09;3.00;;;2.70;;
8260;SDS011;64115;50.170;8.242;2023-04-24T13:11:36;4.80;;;2.83;;
8260;SDS011;64115;50.170;8.242;2023-04-24T13:14:03;3.10;;;2.80;;
8260;SDS011;64115;50.170;8.242;2023-04-24T13:16:30;4.00;;;2.70;;
8260;SDS011;64115;50.170;8.242;2023-04-24T13:18:57;5.43;;;3.10;;
8260;SDS011;64115;50.170;8.242;2023-04-24T13:21:26;4.20;;;3.40;;
8260;SDS011;64115;50.170;8.242;2023-04-24T13:23:53;3.33;;;3.03;;
8260;SDS011;64115;50.170;8.242;2023-04-24T13:26:20;4.83;;;3.37;;
8260;SDS011;64115;50.170;8.242;2023-04-24T13:28:48;4.03;;;3.33;;
8260;SDS011;64115;50.170;8.242;2023-04-24T13:31:15;3.50;;;3.20;;
8260;SDS011;64115;50.170;8.242;2023-04-24T13:33:42;3.43;;;3.13;;
8260;SDS011;64115;50.170;8.242;2023-04-24T13:36:09;3.17;;;2.97;;
8260;SDS011;64115;50.170;8.242;2023-04-24T13:38:37;3.43;;;2.90;;
8260;SDS011;64115;50.170;8.242;2023-04-24T13:41:04;3.23;;;2.93;;
8260;SDS011;64115;50.170;8.242;2023-04-24T13:43:31;3.93;;;3.33;;
8260;SDS011;64115;50.170;8.242;2023-04-24T13:45:59;3.30;;;3.07;;
8260;SDS011;64115;50.170;8.242;2023-04-24T13:48:28;3.97;;;3.30;;
8260;SDS011;64115;50.170;8.242;2023-04-24T13:50:55;3.43;;;3.13;;
8260;SDS011;64115;50.170;8.242;2023-04-24T13:53:22;4.00;;;2.97;;
8260;SDS011;64115;50.170;8.242;2023-04-24T13:55:51;3.37;;;3.07;;
8260;SDS011;64115;50.170;8.242;2023-04-24T13:58:18;3.27;;;3.07;;
8260;SDS011;64115;50.170;8.242;2023-04-24T14:00:45;3.43;;;3.13;;
8260;SDS011;64115;50.170;8.242;2023-04-24T14:03:12;4.47;;;3.20;;
8260;SDS011;64115;50.170;8.242;2023-04-24T14:05:40;4.27;;;3.10;;
8260;SDS011;64115;50.170;8.242;2023-04-24T14:08:07;4.73;;;3.10;;
8260;SDS011;64115;50.170;8.242;2023-04-24T14:10:34;6.53;;;3.00;;
8260;SDS011;64115;50.170;8.242;2023-04-24T14:13:02;3.20;;;2.90;;
8260;SDS011;64115;50.170;8.242;2023-04-24T14:15:30;3.13;;;2.93;;
8260;SDS011;64115;50.170;8.242;2023-04-24T14:17:58;3.97;;;3.00;;
8260;SDS011;64115;50.170;8.242;2023-04-24T14:20:25;3.33;;;2.80;;
8260;SDS011;64115;50.170;8.242;2023-04-24T14:22:52;3.17;;;2.77;;
8260;SDS011;64115;50.170;8.242;2023-04-24T14:25:19;2.97;;;2.60;;
8260;SDS011;64115;50.170;8.242;2023-04-24T14:27:47;4.20;;;3.20;;
8260;SDS011;64115;50.170;8.242;2023-04-24T14:30:16;4.37;;;2.60;;
8260;SDS011;64115;50.170;8.242;2023-04-24T14:32:43;2.53;;;2.43;;
8260;SDS011;64115;50.170;8.242;2023-04-24T14:35:11;3.30;;;2.80;;
8260;SDS011;64115;50.170;8.242;2023-04-24T14:37:38;2.73;;;2.53;;
8260;SDS011;64115;50.170;8.242;2023-04-24T14:40:06;3.00;;;2.40;;
8260;SDS011;64115;50.170;8.242;2023-04-24T14:42:34;3.03;;;2.60;;
8260;SDS011;64115;50.170;8.242;2023-04-24T14:45:02;2.90;;;2.30;;
8260;SDS011;64115;50.170;8.242;2023-04-24T14:47:31;3.30;;;2.83;;
8260;SDS011;64115;50.170;8.242;2023-04-24T14:49:58;2.83;;;2.63;;
8260;SDS011;64115;50.170;8.242;2023-04-24T14:52:25;2.53;;;2.33;;
8260;SDS011;64115;50.170;8.242;2023-04-24T14:54:52;2.80;;;2.50;;
8260;SDS011;64115;50.170;8.242;2023-04-24T14:57:19;2.73;;;2.37;;
8260;SDS011;64115;50.170;8.242;2023-04-24T14:59:46;3.87;;;2.87;;
8260;SDS011;64115;50.170;8.242;2023-04-24T15:02:13;3.57;;;2.97;;
8260;SDS011;64115;50.170;8.242;2023-04-24T15:04:42;2.67;;;2.47;;
8260;SDS011;64115;50.170;8.242;2023-04-24T15:07:09;3.30;;;2.77;;
8260;SDS011;64115;50.170;8.242;2023-04-24T15:09:36;2.80;;;2.60;;
8260;SDS011;64115;50.170;8.242;2023-04-24T15:12:03;2.60;;;2.40;;
8260;SDS011;64115;50.170;8.242;2023-04-24T15:14:30;4.07;;;2.97;;
8260;SDS011;64115;50.170;8.242;2023-04-24T15:16:57;3.07;;;2.77;;
8260;SDS011;64115;50.170;8.242;2023-04-24T15:19:25;2.83;;;2.50;;